sensor_id;sensor_type;location;lat;lon;timestamp;P1;durP1;ratioP1;P2;durP2;ratioP2
13432;SDS011;6789;47.678;9.158;2024-02-14T00:04:49;11.40;;;5.23;;
13432;SDS011;6789;47.678;9.158;2024-02-14T00:09:41;13.00;;;4.90;;
13432;SDS011;6789;47.678;9.158;2024-02-14T00:14:32;9.63;;;4.20;;
13432;SDS011;6789;47.678;9.158;2024-02-14T00:19:24;9.43;;;5.07;;
13432;SDS011;6789;47.678;9.158;2024-02-14T00:24:16;8.83;;;5.17;;
13432;SDS011;6789;47.678;9.158;2024-02-14T00:29:09;10.53;;;5.90;;
13432;SDS011;6789;47.678;9.158;2024-02-14T00:34:01;13.53;;;5.93;;
13432;SDS011;6789;47.678;9.158;2024-02-14T00:38:53;11.27;;;5.80;;
13432;SDS011;6789;47.678;9.158;2024-02-14T00:43:45;13.97;;;6.00;;
13432;SDS011;6789;47.678;9.158;2024-02-14T00:48:36;8.47;;;4.77;;
13432;SDS011;6789;47.678;9.158;2024-02-14T00:53:28;10.30;;;5.40;;
13432;SDS011;6789;47.678;9.158;2024-02-14T00:58:20;13.93;;;5.53;;
13432;SDS011;6789;47.678;9.158;2024-02-14T01:03:12;13.10;;;5.53;;
13432;SDS011;6789;47.678;9.158;2024-02-14T01:08:06;9.53;;;4.83;;
13432;SDS011;6789;47.678;9.158;2024-02-14T01:12:58;12.93;;;5.20;;
13432;SDS011;6789;47.678;9.158;2024-02-14T01:17:49;9.73;;;4.53;;
13432;SDS011;6789;47.678;9.158;2024-02-14T01:22:41;10.17;;;4.93;;
13432;SDS011;6789;47.678;9.158;2024-02-14T01:27:33;9.47;;;4.33;;
13432;SDS011;6789;47.678;9.158;2024-02-14T01:32:25;9.97;;;4.83;;
13432;SDS011;6789;47.678;9.158;2024-02-14T01:37:21;10.67;;;5.33;;
13432;SDS011;6789;47.678;9.158;2024-02-14T01:42:12;12.37;;;5.23;;
13432;SDS011;6789;47.678;9.158;2024-02-14T01:47:04;10.83;;;5.23;;
13432;SDS011;6789;47.678;9.158;2024-02-14T01:51:59;11.67;;;5.63;;
13432;SDS011;6789;47.678;9.158;2024-02-14T01:56:54;9.37;;;5.03;;
13432;SDS011;6789;47.678;9.158;2024-02-14T02:01:50;9.63;;;5.27;;
13432;SDS011;6789;47.678;9.158;2024-02-14T02:06:44;9.63;;;4.97;;
13432;SDS011;6789;47.678;9.158;2024-02-14T02:11:44;11.47;;;5.90;;
13432;SDS011;6789;47.678;9.158;2024-02-14T02:16:39;10.23;;;4.77;;
13432;SDS011;6789;47.678;9.158;2024-02-14T02:21:32;8.83;;;5.30;;
13432;SDS011;6789;47.678;9.158;2024-02-14T02:26:24;8.93;;;4.97;;
13432;SDS011;6789;47.678;9.158;2024-02-14T02:31:16;8.93;;;5.53;;
13432;SDS011;6789;47.678;9.158;2024-02-14T02:36:09;11.67;;;5.57;;
13432;SDS011;6789;47.678;9.158;2024-02-14T02:41:01;8.13;;;5.47;;
13432;SDS011;6789;47.678;9.158;2024-02-14T02:45:55;9.93;;;6.20;;
13432;SDS011;6789;47.678;9.158;2024-02-14T02:50:49;9.17;;;5.20;;
13432;SDS011;6789;47.678;9.158;2024-02-14T02:55:41;10.23;;;6.10;;
13432;SDS011;6789;47.678;9.158;2024-02-14T03:00:33;10.77;;;4.90;;
13432;SDS011;6789;47.678;9.158;2024-02-14T03:05:25;9.37;;;4.57;;
13432;SDS011;6789;47.678;9.158;2024-02-14T03:10:17;8.60;;;4.97;;
13432;SDS011;6789;47.678;9.158;2024-02-14T03:15:10;13.43;;;5.50;;
13432;SDS011;6789;47.678;9.158;2024-02-14T03:20:02;13.30;;;6.33;;
13432;SDS011;6789;47.678;9.158;2024-02-14T03:25:06;11.43;;;5.53;;
13432;SDS011;6789;47.678;9.158;2024-02-14T03:29:59;9.60;;;5.33;;
13432;SDS011;6789;47.678;9.158;2024-02-14T03:34:50;10.97;;;5.27;;
13432;SDS011;6789;47.678;9.158;2024-02-14T03:39:42;10.27;;;5.67;;
13432;SDS011;6789;47.678;9.158;2024-02-14T03:44:34;10.70;;;5.63;;
13432;SDS011;6789;47.678;9.158;2024-02-14T03:49:26;9.07;;;4.80;;
13432;SDS011;6789;47.678;9.158;2024-02-14T03:54:18;12.07;;;5.70;;
13432;SDS011;6789;47.678;9.158;2024-02-14T03:59:11;7.87;;;4.90;;
13432;SDS011;6789;47.678;9.158;2024-02-14T04:04:03;10.53;;;5.17;;
13432;SDS011;6789;47.678;9.158;2024-02-14T04:08:55;9.50;;;5.17;;
13432;SDS011;6789;47.678;9.158;2024-02-14T04:13:47;8.43;;;4.40;;
13432;SDS011;6789;47.678;9.158;2024-02-14T04:18:38;7.87;;;4.57;;
13432;SDS011;6789;47.678;9.158;2024-02-14T04:23:30;6.20;;;3.93;;
13432;SDS011;6789;47.678;9.158;2024-02-14T04:28:22;7.40;;;3.83;;
13432;SDS011;6789;47.678;9.158;2024-02-14T04:33:14;7.30;;;3.77;;
13432;SDS011;6789;47.678;9.158;2024-02-14T04:38:06;7.30;;;4.20;;
13432;SDS011;6789;47.678;9.158;2024-02-14T04:43:00;7.37;;;3.93;;
13432;SDS011;6789;47.678;9.158;2024-02-14T04:47:51;9.80;;;4.77;;
13432;SDS011;6789;47.678;9.158;2024-02-14T04:52:43;12.20;;;4.43;;
13432;SDS011;6789;47.678;9.158;2024-02-14T04:57:35;10.47;;;4.07;;
13432;SDS011;6789;47.678;9.158;2024-02-14T05:02:28;6.43;;;3.70;;
13432;SDS011;6789;47.678;9.158;2024-02-14T05:07:20;9.37;;;4.53;;
13432;SDS011;6789;47.678;9.158;2024-02-14T05:12:11;5.90;;;4.30;;
13432;SDS011;6789;47.678;9.158;2024-02-14T05:17:03;6.50;;;3.80;;
13432;SDS011;6789;47.678;9.158;2024-02-14T05:21:55;6.10;;;4.00;;
13432;SDS011;6789;47.678;9.158;2024-02-14T05:26:47;12.00;;;5.23;;
13432;SDS011;6789;47.678;9.158;2024-02-14T05:31:43;9.63;;;5.03;;
13432;SDS011;6789;47.678;9.158;2024-02-14T05:36:38;9.37;;;5.53;;
13432;SDS011;6789;47.678;9.158;2024-02-14T05:41:29;9.23;;;5.30;;
13432;SDS011;6789;47.678;9.158;2024-02-14T05:46:24;10.43;;;5.53;;
13432;SDS011;6789;47.678;9.158;2024-02-14T05:51:16;13.33;;;5.63;;
13432;SDS011;6789;47.678;9.158;2024-02-14T05:56:08;9.70;;;5.07;;
13432;SDS011;6789;47.678;9.158;2024-02-14T06:01:00;8.07;;;5.03;;
13432;SDS011;6789;47.678;9.158;2024-02-14T06:05:52;7.10;;;4.23;;
13432;SDS011;6789;47.678;9.158;2024-02-14T06:10:44;6.87;;;4.47;;
13432;SDS011;6789;47.678;9.158;2024-02-14T06:15:36;9.10;;;5.00;;
13432;SDS011;6789;47.678;9.158;2024-02-14T06:20:27;9.10;;;4.80;;
13432;SDS011;6789;47.678;9.158;2024-02-14T06:25:19;9.53;;;5.07;;
13432;SDS011;6789;47.678;9.158;2024-02-14T06:30:12;12.43;;;4.80;;
13432;SDS011;6789;47.678;9.158;2024-02-14T06:35:04;12.43;;;5.60;;
13432;SDS011;6789;47.678;9.158;2024-02-14T06:39:58;13.40;;;5.77;;
13432;SDS011;6789;47.678;9.158;2024-02-14T06:44:49;13.10;;;5.80;;
13432;SDS011;6789;47.678;9.158;2024-02-14T06:49:41;11.43;;;5.57;;
13432;SDS011;6789;47.678;9.158;2024-02-14T06:54:33;11.27;;;5.70;;
13432;SDS011;6789;47.678;9.158;2024-02-14T06:59:25;12.70;;;5.50;;
13432;SDS011;6789;47.678;9.158;2024-02-14T07:04:17;10.57;;;5.80;;
13432;SDS011;6789;47.678;9.158;2024-02-14T07:09:16;15.90;;;6.10;;
13432;SDS011;6789;47.678;9.158;2024-02-14T07:14:08;13.03;;;6.37;;
13432;SDS011;6789;47.678;9.158;2024-02-14T07:19:00;13.77;;;6.73;;
13432;SDS011;6789;47.678;9.158;2024-02-14T07:23:52;9.80;;;5.97;;
13432;SDS011;6789;47.678;9.158;2024-02-14T07:28:44;7.60;;;5.10;;
13432;SDS011;6789;47.678;9.158;2024-02-14T07:33:36;10.40;;;5.57;;
13432;SDS011;6789;47.678;9.158;2024-02-14T07:38:28;8.87;;;5.80;;
13432;SDS011;6789;47.678;9.158;2024-02-14T07:43:20;9.57;;;5.60;;
13432;SDS011;6789;47.678;9.158;2024-02-14T07:48:12;12.93;;;5.17;;
13432;SDS011;6789;47.678;9.158;2024-02-14T07:53:04;11.10;;;5.97;;
13432;SDS011;6789;47.678;9.158;2024-02-14T07:57:57;9.73;;;5.20;;
13432;SDS011;6789;47.678;9.158;2024-02-14T08:02:51;9.70;;;5.40;;
13432;SDS011;6789;47.678;9.158;2024-02-14T08:07:46;9.17;;;5.00;;
13432;SDS011;6789;47.678;9.158;2024-02-14T08:12:38;6.37;;;4.70;;
13432;SDS011;6789;47.678;9.158;2024-02-14T08:17:30;6.30;;;4.50;;
13432;SDS011;6789;47.678;9.158;2024-02-14T08:22:22;15.77;;;4.50;;
13432;SDS011;6789;47.678;9.158;2024-02-14T08:27:13;8.90;;;3.97;;
13432;SDS011;6789;47.678;9.158;2024-02-14T08:32:05;10.27;;;3.70;;
13432;SDS011;6789;47.678;9.158;2024-02-14T08:36:57;7.07;;;3.10;;
13432;SDS011;6789;47.678;9.158;2024-02-14T08:41:49;4.33;;;2.50;;
13432;SDS011;6789;47.678;9.158;2024-02-14T08:46:41;8.20;;;2.47;;
13432;SDS011;6789;47.678;9.158;2024-02-14T08:51:35;15.03;;;3.67;;
13432;SDS011;6789;47.678;9.158;2024-02-14T08:56:27;15.10;;;2.70;;
13432;SDS011;6789;47.678;9.158;2024-02-14T09:01:37;7.10;;;2.20;;
13432;SDS011;6789;47.678;9.158;2024-02-14T09:06:29;12.73;;;2.20;;
13432;SDS011;6789;47.678;9.158;2024-02-14T09:11:21;7.20;;;2.00;;
13432;SDS011;6789;47.678;9.158;2024-02-14T09:16:13;12.67;;;2.57;;
13432;SDS011;6789;47.678;9.158;2024-02-14T09:21:06;6.30;;;1.77;;
13432;SDS011;6789;47.678;9.158;2024-02-14T09:25:58;7.87;;;1.80;;
13432;SDS011;6789;47.678;9.158;2024-02-14T09:30:50;3.03;;;1.83;;
13432;SDS011;6789;47.678;9.158;2024-02-14T09:35:42;4.77;;;2.00;;
13432;SDS011;6789;47.678;9.158;2024-02-14T09:40:42;3.70;;;1.60;;
13432;SDS011;6789;47.678;9.158;2024-02-14T09:45:34;3.43;;;1.70;;
13432;SDS011;6789;47.678;9.158;2024-02-14T09:50:32;2.90;;;1.80;;
13432;SDS011;6789;47.678;9.158;2024-02-14T09:55:25;3.27;;;2.00;;
13432;SDS011;6789;47.678;9.158;2024-02-14T10:00:18;2.93;;;1.60;;
13432;SDS011;6789;47.678;9.158;2024-02-14T10:05:10;3.67;;;1.90;;
13432;SDS011;6789;47.678;9.158;2024-02-14T10:10:06;3.23;;;1.90;;
13432;SDS011;6789;47.678;9.158;2024-02-14T10:14:58;4.60;;;1.60;;
13432;SDS011;6789;47.678;9.158;2024-02-14T10:19:57;4.00;;;2.10;;
13432;SDS011;6789;47.678;9.158;2024-02-14T10:24:50;5.40;;;1.87;;
13432;SDS011;6789;47.678;9.158;2024-02-14T10:29:43;3.60;;;2.00;;
13432;SDS011;6789;47.678;9.158;2024-02-14T10:34:35;5.80;;;1.70;;
13432;SDS011;6789;47.678;9.158;2024-02-14T10:39:31;3.90;;;1.67;;
13432;SDS011;6789;47.678;9.158;2024-02-14T10:44:23;4.20;;;1.60;;
13432;SDS011;6789;47.678;9.158;2024-02-14T10:49:16;3.20;;;1.40;;
13432;SDS011;6789;47.678;9.158;2024-02-14T10:54:11;3.07;;;1.60;;
13432;SDS011;6789;47.678;9.158;2024-02-14T10:59:04;3.27;;;1.50;;
13432;SDS011;6789;47.678;9.158;2024-02-14T11:03:59;3.87;;;1.57;;
13432;SDS011;6789;47.678;9.158;2024-02-14T11:09:11;2.53;;;1.53;;
13432;SDS011;6789;47.678;9.158;2024-02-14T11:14:04;5.27;;;1.70;;
13432;SDS011;6789;47.678;9.158;2024-02-14T11:19:10;4.23;;;1.50;;
13432;SDS011;6789;47.678;9.158;2024-02-14T11:24:05;3.80;;;1.73;;
13432;SDS011;6789;47.678;9.158;2024-02-14T11:29:01;2.10;;;1.53;;
13432;SDS011;6789;47.678;9.158;2024-02-14T11:33:55;4.57;;;1.77;;
13432;SDS011;6789;47.678;9.158;2024-02-14T11:38:48;2.87;;;1.90;;
13432;SDS011;6789;47.678;9.158;2024-02-14T11:43:50;2.93;;;1.63;;
13432;SDS011;6789;47.678;9.158;2024-02-14T11:48:42;2.23;;;1.40;;
13432;SDS011;6789;47.678;9.158;2024-02-14T11:53:38;3.83;;;1.93;;
13432;SDS011;6789;47.678;9.158;2024-02-14T11:58:32;4.80;;;1.90;;
13432;SDS011;6789;47.678;9.158;2024-02-14T12:03:25;3.70;;;1.50;;
13432;SDS011;6789;47.678;9.158;2024-02-14T12:08:17;4.70;;;1.70;;
13432;SDS011;6789;47.678;9.158;2024-02-14T12:13:14;5.37;;;1.63;;
13432;SDS011;6789;47.678;9.158;2024-02-14T12:18:09;3.67;;;1.63;;
13432;SDS011;6789;47.678;9.158;2024-02-14T12:23:01;3.47;;;1.63;;
13432;SDS011;6789;47.678;9.158;2024-02-14T12:27:54;3.53;;;1.83;;
13432;SDS011;6789;47.678;9.158;2024-02-14T12:32:58;2.77;;;1.70;;
13432;SDS011;6789;47.678;9.158;2024-02-14T12:37:51;3.60;;;1.73;;
13432;SDS011;6789;47.678;9.158;2024-02-14T12:42:44;2.67;;;1.70;;
13432;SDS011;6789;47.678;9.158;2024-02-14T12:47:36;2.60;;;1.50;;
13432;SDS011;6789;47.678;9.158;2024-02-14T12:52:28;3.77;;;1.80;;
13432;SDS011;6789;47.678;9.158;2024-02-14T12:57:20;2.90;;;2.00;;
13432;SDS011;6789;47.678;9.158;2024-02-14T13:02:13;3.30;;;1.53;;
13432;SDS011;6789;47.678;9.158;2024-02-14T13:07:05;1.52;;;1.27;;
13432;SDS011;6789;47.678;9.158;2024-02-14T13:11:56;2.37;;;1.33;;
13432;SDS011;6789;47.678;9.158;2024-02-14T13:16:48;2.50;;;1.67;;
13432;SDS011;6789;47.678;9.158;2024-02-14T13:21:40;1.17;;;0.98;;
13432;SDS011;6789;47.678;9.158;2024-02-14T13:26:52;1.38;;;0.95;;
13432;SDS011;6789;47.678;9.158;2024-02-14T13:31:44;3.97;;;1.20;;
13432;SDS011;6789;47.678;9.158;2024-02-14T13:36:36;3.50;;;1.60;;
13432;SDS011;6789;47.678;9.158;2024-02-14T13:41:28;1.45;;;1.25;;
13432;SDS011;6789;47.678;9.158;2024-02-14T13:46:21;4.30;;;1.73;;
13432;SDS011;6789;47.678;9.158;2024-02-14T13:51:13;2.53;;;1.13;;
13432;SDS011;6789;47.678;9.158;2024-02-14T13:56:05;1.52;;;1.05;;
13432;SDS011;6789;47.678;9.158;2024-02-14T14:00:57;1.55;;;1.05;;
13432;SDS011;6789;47.678;9.158;2024-02-14T14:05:50;3.92;;;1.10;;
13432;SDS011;6789;47.678;9.158;2024-02-14T14:10:42;3.35;;;1.00;;
13432;SDS011;6789;47.678;9.158;2024-02-14T14:15:35;2.88;;;1.30;;
13432;SDS011;6789;47.678;9.158;2024-02-14T14:20:27;2.92;;;1.25;;
13432;SDS011;6789;47.678;9.158;2024-02-14T14:25:19;1.73;;;1.15;;
13432;SDS011;6789;47.678;9.158;2024-02-14T14:30:11;2.13;;;1.30;;
13432;SDS011;6789;47.678;9.158;2024-02-14T14:35:03;3.58;;;1.38;;
13432;SDS011;6789;47.678;9.158;2024-02-14T14:39:55;4.22;;;1.30;;
13432;SDS011;6789;47.678;9.158;2024-02-14T14:44:48;2.70;;;1.42;;
13432;SDS011;6789;47.678;9.158;2024-02-14T14:49:40;2.38;;;1.25;;
13432;SDS011;6789;47.678;9.158;2024-02-14T14:54:33;4.03;;;1.10;;
13432;SDS011;6789;47.678;9.158;2024-02-14T14:59:25;2.47;;;1.10;;
13432;SDS011;6789;47.678;9.158;2024-02-14T15:04:17;3.03;;;1.52;;
13432;SDS011;6789;47.678;9.158;2024-02-14T15:09:11;1.58;;;1.40;;
13432;SDS011;6789;47.678;9.158;2024-02-14T15:14:03;4.15;;;1.50;;
13432;SDS011;6789;47.678;9.158;2024-02-14T15:18:57;2.70;;;1.33;;
13432;SDS011;6789;47.678;9.158;2024-02-14T15:23:49;2.85;;;1.50;;
13432;SDS011;6789;47.678;9.158;2024-02-14T15:28:41;4.13;;;1.60;;
13432;SDS011;6789;47.678;9.158;2024-02-14T15:33:36;1.48;;;1.13;;
13432;SDS011;6789;47.678;9.158;2024-02-14T15:38:29;2.83;;;1.47;;
13432;SDS011;6789;47.678;9.158;2024-02-14T15:43:21;5.45;;;1.92;;
13432;SDS011;6789;47.678;9.158;2024-02-14T15:48:13;6.73;;;1.77;;
13432;SDS011;6789;47.678;9.158;2024-02-14T15:53:08;3.63;;;2.03;;
13432;SDS011;6789;47.678;9.158;2024-02-14T15:58:01;8.80;;;2.65;;
13432;SDS011;6789;47.678;9.158;2024-02-14T16:02:53;7.45;;;2.30;;
13432;SDS011;6789;47.678;9.158;2024-02-14T16:07:45;9.65;;;2.78;;
13432;SDS011;6789;47.678;9.158;2024-02-14T16:12:36;8.20;;;2.20;;
13432;SDS011;6789;47.678;9.158;2024-02-14T16:17:28;3.53;;;1.80;;
13432;SDS011;6789;47.678;9.158;2024-02-14T16:22:20;5.18;;;1.80;;
13432;SDS011;6789;47.678;9.158;2024-02-14T16:27:12;4.15;;;1.50;;
13432;SDS011;6789;47.678;9.158;2024-02-14T16:32:07;5.03;;;1.80;;
13432;SDS011;6789;47.678;9.158;2024-02-14T16:36:59;3.67;;;2.10;;
13432;SDS011;6789;47.678;9.158;2024-02-14T16:41:51;6.20;;;2.00;;
13432;SDS011;6789;47.678;9.158;2024-02-14T16:46:43;5.50;;;2.27;;
13432;SDS011;6789;47.678;9.158;2024-02-14T16:51:49;5.27;;;2.43;;
13432;SDS011;6789;47.678;9.158;2024-02-14T16:56:59;4.87;;;2.30;;
13432;SDS011;6789;47.678;9.158;2024-02-14T17:02:03;7.03;;;2.80;;
13432;SDS011;6789;47.678;9.158;2024-02-14T17:06:57;6.43;;;2.60;;
13432;SDS011;6789;47.678;9.158;2024-02-14T17:11:49;7.63;;;2.43;;
13432;SDS011;6789;47.678;9.158;2024-02-14T17:16:42;3.90;;;2.30;;
13432;SDS011;6789;47.678;9.158;2024-02-14T17:21:34;7.47;;;2.50;;
13432;SDS011;6789;47.678;9.158;2024-02-14T17:26:28;5.83;;;2.83;;
13432;SDS011;6789;47.678;9.158;2024-02-14T17:31:20;5.97;;;2.93;;
13432;SDS011;6789;47.678;9.158;2024-02-14T17:36:13;5.07;;;2.93;;
13432;SDS011;6789;47.678;9.158;2024-02-14T17:41:05;6.00;;;3.87;;
13432;SDS011;6789;47.678;9.158;2024-02-14T17:45:59;6.03;;;3.37;;
13432;SDS011;6789;47.678;9.158;2024-02-14T17:50:51;6.20;;;3.57;;
13432;SDS011;6789;47.678;9.158;2024-02-14T17:55:42;6.43;;;2.93;;
13432;SDS011;6789;47.678;9.158;2024-02-14T18:00:34;7.33;;;3.60;;
13432;SDS011;6789;47.678;9.158;2024-02-14T18:05:26;6.20;;;3.87;;
13432;SDS011;6789;47.678;9.158;2024-02-14T18:10:18;10.27;;;3.37;;
13432;SDS011;6789;47.678;9.158;2024-02-14T18:15:11;5.60;;;2.83;;
13432;SDS011;6789;47.678;9.158;2024-02-14T18:20:21;7.60;;;3.40;;
13432;SDS011;6789;47.678;9.158;2024-02-14T18:25:13;5.63;;;2.70;;
13432;SDS011;6789;47.678;9.158;2024-02-14T18:30:04;4.33;;;2.77;;
13432;SDS011;6789;47.678;9.158;2024-02-14T18:34:59;8.23;;;3.57;;
13432;SDS011;6789;47.678;9.158;2024-02-14T18:39:51;5.83;;;3.17;;
13432;SDS011;6789;47.678;9.158;2024-02-14T18:44:45;5.07;;;3.73;;
13432;SDS011;6789;47.678;9.158;2024-02-14T18:49:38;4.20;;;2.90;;
13432;SDS011;6789;47.678;9.158;2024-02-14T18:54:35;4.03;;;2.73;;
13432;SDS011;6789;47.678;9.158;2024-02-14T18:59:27;3.80;;;3.07;;
13432;SDS011;6789;47.678;9.158;2024-02-14T19:04:19;7.47;;;3.70;;
13432;SDS011;6789;47.678;9.158;2024-02-14T19:09:11;6.87;;;2.97;;
13432;SDS011;6789;47.678;9.158;2024-02-14T19:14:03;10.10;;;5.63;;
13432;SDS011;6789;47.678;9.158;2024-02-14T19:18:55;6.07;;;3.23;;
13432;SDS011;6789;47.678;9.158;2024-02-14T19:23:48;6.43;;;4.23;;
13432;SDS011;6789;47.678;9.158;2024-02-14T19:28:40;6.23;;;3.87;;
13432;SDS011;6789;47.678;9.158;2024-02-14T19:33:32;5.93;;;3.60;;
13432;SDS011;6789;47.678;9.158;2024-02-14T19:38:23;4.93;;;3.07;;
13432;SDS011;6789;47.678;9.158;2024-02-14T19:43:15;4.63;;;3.20;;
13432;SDS011;6789;47.678;9.158;2024-02-14T19:48:25;4.40;;;3.40;;
13432;SDS011;6789;47.678;9.158;2024-02-14T19:53:21;5.63;;;3.47;;
13432;SDS011;6789;47.678;9.158;2024-02-14T19:58:13;4.77;;;3.20;;
13432;SDS011;6789;47.678;9.158;2024-02-14T20:03:06;4.47;;;2.80;;
13432;SDS011;6789;47.678;9.158;2024-02-14T20:07:58;4.03;;;2.90;;
13432;SDS011;6789;47.678;9.158;2024-02-14T20:12:52;4.60;;;2.77;;
13432;SDS011;6789;47.678;9.158;2024-02-14T20:17:44;6.63;;;3.30;;
13432;SDS011;6789;47.678;9.158;2024-02-14T20:22:37;6.23;;;3.43;;
13432;SDS011;6789;47.678;9.158;2024-02-14T20:27:28;4.97;;;2.93;;
13432;SDS011;6789;47.678;9.158;2024-02-14T20:32:22;4.63;;;3.07;;
13432;SDS011;6789;47.678;9.158;2024-02-14T20:37:14;6.93;;;3.60;;
13432;SDS011;6789;47.678;9.158;2024-02-14T20:42:06;6.03;;;3.37;;
13432;SDS011;6789;47.678;9.158;2024-02-14T20:46:58;6.27;;;3.50;;
13432;SDS011;6789;47.678;9.158;2024-02-14T20:51:51;6.60;;;3.93;;
13432;SDS011;6789;47.678;9.158;2024-02-14T20:56:44;5.07;;;3.60;;
13432;SDS011;6789;47.678;9.158;2024-02-14T21:01:35;6.67;;;3.40;;
13432;SDS011;6789;47.678;9.158;2024-02-14T21:06:35;6.40;;;3.10;;
13432;SDS011;6789;47.678;9.158;2024-02-14T21:11:28;5.50;;;3.30;;
13432;SDS011;6789;47.678;9.158;2024-02-14T21:16:20;7.73;;;3.57;;
13432;SDS011;6789;47.678;9.158;2024-02-14T21:21:11;6.03;;;3.30;;
13432;SDS011;6789;47.678;9.158;2024-02-14T21:26:18;5.50;;;3.20;;
13432;SDS011;6789;47.678;9.158;2024-02-14T21:31:10;4.33;;;3.40;;
13432;SDS011;6789;47.678;9.158;2024-02-14T21:36:02;9.27;;;3.83;;
13432;SDS011;6789;47.678;9.158;2024-02-14T21:40:55;5.03;;;3.03;;
13432;SDS011;6789;47.678;9.158;2024-02-14T21:45:47;5.87;;;2.77;;
13432;SDS011;6789;47.678;9.158;2024-02-14T21:50:39;6.27;;;3.20;;
13432;SDS011;6789;47.678;9.158;2024-02-14T21:55:30;7.30;;;3.43;;
13432;SDS011;6789;47.678;9.158;2024-02-14T22:00:22;6.97;;;4.33;;
13432;SDS011;6789;47.678;9.158;2024-02-14T22:05:14;8.13;;;4.87;;
13432;SDS011;6789;47.678;9.158;2024-02-14T22:10:06;8.43;;;4.67;;
13432;SDS011;6789;47.678;9.158;2024-02-14T22:14:58;9.10;;;5.43;;
13432;SDS011;6789;47.678;9.158;2024-02-14T22:19:50;8.43;;;5.13;;
13432;SDS011;6789;47.678;9.158;2024-02-14T22:24:44;10.60;;;5.50;;
13432;SDS011;6789;47.678;9.158;2024-02-14T22:29:39;8.90;;;5.10;;
13432;SDS011;6789;47.678;9.158;2024-02-14T22:34:31;9.73;;;5.40;;
13432;SDS011;6789;47.678;9.158;2024-02-14T22:39:23;9.93;;;4.93;;
13432;SDS011;6789;47.678;9.158;2024-02-14T22:44:15;8.80;;;5.27;;
13432;SDS011;6789;47.678;9.158;2024-02-14T22:49:10;10.43;;;5.67;;
13432;SDS011;6789;47.678;9.158;2024-02-14T22:54:03;11.80;;;5.53;;
13432;SDS011;6789;47.678;9.158;2024-02-14T22:58:55;7.80;;;4.90;;
13432;SDS011;6789;47.678;9.158;2024-02-14T23:03:47;7.97;;;4.23;;
13432;SDS011;6789;47.678;9.158;2024-02-14T23:08:53;9.00;;;4.73;;
13432;SDS011;6789;47.678;9.158;2024-02-14T23:13:45;9.50;;;5.00;;
13432;SDS011;6789;47.678;9.158;2024-02-14T23:18:37;6.90;;;4.60;;
13432;SDS011;6789;47.678;9.158;2024-02-14T23:23:29;8.70;;;4.53;;
13432;SDS011;6789;47.678;9.158;2024-02-14T23:28:20;6.77;;;4.77;;
13432;SDS011;6789;47.678;9.158;2024-02-14T23:33:12;9.10;;;4.83;;
13432;SDS011;6789;47.678;9.158;2024-02-14T23:38:06;9.33;;;5.60;;
13432;SDS011;6789;47.678;9.158;2024-02-14T23:42:59;9.70;;;5.07;;
13432;SDS011;6789;47.678;9.158;2024-02-14T23:47:51;11.87;;;5.67;;
13432;SDS011;6789;47.678;9.158;2024-02-14T23:52:45;8.90;;;4.73;;
13432;SDS011;6789;47.678;9.158;2024-02-14T23:57:39;10.13;;;5.10;;
